Time;durP1;ratioP1;P1;durP2;ratioP2;P2;SDS_P1;SDS_P2;PMS_P1;PMS_P2;Temp;Humidity;BMP_temperature;BMP_pressure;BME280_temperature;BME280_humidity;BME280_pressure;Samples;Min_cycle;Max_cycle;Signal;HPM_P1;HPM_P2
2022/01/21 00:00:11;;;;;;;6.20;1.40;;;4.20;82.70;;;;;;5019221;28;20520;-30
2022/01/21 00:02:38;;;;;;;5.07;1.50;;;4.20;82.90;;;;;;5019066;28;20398;-30
2022/01/21 00:05:05;;;;;;;6.63;1.38;;;4.10;82.80;;;;;;5015673;28;20052;-30
2022/01/21 00:07:30;;;;;;;6.97;1.20;;;4.10;83.10;;;;;;5015895;28;20105;-29
2022/01/21 00:09:56;;;;;;;5.55;1.30;;;4.00;83.20;;;;;;5015789;28;20064;-33
2022/01/21 00:12:22;;;;;;;5.03;1.60;;;4.00;83.30;;;;;;5031007;28;20057;-29
2022/01/21 00:14:48;;;;;;;9.65;1.90;;;3.90;83.50;;;;;;5015794;28;20113;-29
2022/01/21 00:17:15;;;;;;;7.43;1.40;;;3.90;83.60;;;;;;5015738;28;20053;-30
2022/01/21 00:19:44;;;;;;;5.72;1.40;;;3.90;83.70;;;;;;5015806;28;20022;-29
2022/01/21 00:30:25;;;;;;;11.82;1.75;;;3.90;84.10;;;;;;5015669;28;19960;-33
2022/01/21 00:32:51;;;;;;;6.95;1.38;;;3.90;84.00;;;;;;5015471;28;20053;-31
2022/01/21 00:35:18;;;;;;;6.03;1.30;;;3.90;84.00;;;;;;5015213;28;20502;-30
2022/01/21 00:37:44;;;;;;;6.65;1.40;;;3.90;84.00;;;;;;5015472;28;20014;-30
2022/01/21 00:40:14;;;;;;;7.38;1.60;;;3.90;84.10;;;;;;5015194;28;20026;-30
2022/01/21 00:45:11;;;;;;;5.35;1.48;;;3.90;84.20;;;;;;5015165;28;20022;-29
2022/01/21 00:47:37;;;;;;;6.65;1.80;;;3.90;84.10;;;;;;5015178;28;20044;-33
2022/01/21 00:50:04;;;;;;;5.07;1.20;;;3.90;84.10;;;;;;5015152;28;20034;-30
2022/01/21 00:52:30;;;;;;;6.70;1.42;;;3.90;84.10;;;;;;5015265;28;20426;-30
2022/01/21 00:54:56;;;;;;;7.68;1.48;;;4.00;84.20;;;;;;5015144;28;20168;-30
2022/01/21 00:57:21;;;;;;;7.57;1.90;;;3.90;84.10;;;;;;5014982;28;20029;-30
2022/01/21 00:59:47;;;;;;;9.38;1.52;;;3.90;84.10;;;;;;5014947;28;20104;-34
2022/01/21 01:02:13;;;;;;;6.43;1.48;;;3.90;84.20;;;;;;5014811;28;20021;-30
2022/01/21 01:04:38;;;;;;;8.75;1.63;;;3.80;84.30;;;;;;5030079;28;20469;-30
2022/01/21 01:07:04;;;;;;;12.10;1.73;;;3.80;84.50;;;;;;5014783;28;20029;-32
2022/01/21 01:09:30;;;;;;;6.70;1.60;;;3.80;84.50;;;;;;5014760;28;20053;-30
2022/01/21 01:20:04;;;;;;;;;;;3.70;84.70;;;;;;5015028;28;20060;-31
2022/01/21 01:28:02;;;;;;;4.07;1.30;;;3.90;84.50;;;;;;5014600;28;20040;-29
2022/01/21 01:30:31;;;;;;;9.48;1.60;;;3.90;84.40;;;;;;5014287;28;20386;-31
2022/01/21 01:32:59;;;;;;;5.25;1.45;;;3.90;84.30;;;;;;5014272;28;20030;-29
2022/01/21 01:35:27;;;;;;;6.45;1.60;;;4.00;84.30;;;;;;5014059;28;20038;-30
2022/01/21 01:38:13;;;;;;;7.38;1.98;;;4.00;84.30;;;;;;5029873;28;20024;-30
2022/01/21 01:40:50;;;;;;;7.15;1.60;;;3.90;84.10;;;;;;5014476;28;20050;-30
2022/01/21 01:51:14;;;;;;;5.32;2.00;;;3.90;84.20;;;;;;5014034;28;20040;-29
2022/01/21 01:53:53;;;;;;;6.10;1.50;;;3.90;84.10;;;;;;5029183;28;20478;-30
2022/01/21 01:56:22;;;;;;;8.95;1.77;;;3.90;84.10;;;;;;5013811;28;20032;-29
2022/01/21 01:58:48;;;;;;;7.60;1.80;;;4.00;84.00;;;;;;5013912;28;20017;-32
2022/01/21 02:01:14;;;;;;;9.20;1.83;;;4.00;83.90;;;;;;5013787;28;20021;-30
2022/01/21 02:03:39;;;;;;;8.02;1.55;;;4.00;83.80;;;;;;5012445;28;20018;-31
2022/01/21 02:06:05;;;;;;;10.18;1.95;;;4.10;83.80;;;;;;5013682;28;20434;-30
2022/01/21 02:08:31;;;;;;;8.60;1.70;;;4.10;83.70;;;;;;5014027;28;20022;-29
2022/01/21 02:10:57;;;;;;;7.45;1.55;;;4.10;83.60;;;;;;5013659;28;20061;-32
2022/01/21 02:13:29;;;;;;;15.57;2.35;;;4.10;83.50;;;;;;5013877;28;20378;-29
2022/01/21 02:16:30;;;;;;;10.60;2.90;;;4.10;83.40;;;;;;5013959;28;20049;-29
2022/01/21 02:21:45;;;;;;;9.05;2.05;;;3.90;83.40;;;;;;5013727;28;20040;-34
2022/01/21 02:24:15;;;;;;;7.53;1.50;;;3.90;83.60;;;;;;5013700;28;20014;-31
2022/01/21 02:26:41;;;;;;;9.18;1.90;;;3.80;83.60;;;;;;5013257;28;20037;-31
2022/01/21 02:29:09;;;;;;;6.15;1.30;;;3.80;83.70;;;;;;5013277;28;20450;-30
2022/01/21 02:31:36;;;;;;;7.35;1.88;;;3.70;83.80;;;;;;5013556;28;20438;-31
2022/01/21 02:34:03;;;;;;;9.02;1.88;;;3.70;84.00;;;;;;5013620;28;20390;-29
2022/01/21 02:36:29;;;;;;;9.15;1.80;;;3.60;84.00;;;;;;5013176;28;20042;-32
2022/01/21 02:38:55;;;;;;;7.45;1.73;;;3.60;84.10;;;;;;5013212;28;20028;-30
2022/01/21 02:41:20;;;;;;;8.13;1.70;;;3.60;84.20;;;;;;5013501;28;20022;-30
2022/01/21 02:43:47;;;;;;;4.70;1.70;;;3.60;84.30;;;;;;5013275;28;20032;-31
2022/01/21 02:46:14;;;;;;;7.38;1.77;;;3.50;84.30;;;;;;5013102;28;20033;-29
2022/01/21 02:48:41;;;;;;;11.70;1.98;;;3.50;84.30;;;;;;5013162;28;20018;-30
2022/01/21 02:51:08;;;;;;;3.92;1.48;;;3.40;84.40;;;;;;5013178;28;20038;-29
2022/01/21 02:56:16;;;;;;;9.15;1.73;;;3.40;84.40;;;;;;5013528;28;20037;-30
2022/01/21 02:58:44;;;;;;;7.53;1.60;;;3.40;84.50;;;;;;5013045;28;20088;-29
2022/01/21 03:01:10;;;;;;;5.88;1.55;;;3.40;84.50;;;;;;5013093;28;20022;-33
2022/01/21 03:03:36;;;;;;;8.38;1.95;;;3.40;84.50;;;;;;5013106;28;20026;-29
2022/01/21 03:06:02;;;;;;;9.52;2.00;;;3.30;84.60;;;;;;5013428;28;20536;-30
2022/01/21 03:08:28;;;;;;;7.13;1.63;;;3.30;84.70;;;;;;5013030;28;20481;-29
2022/01/21 03:10:55;;;;;;;10.23;1.85;;;3.30;84.80;;;;;;5013270;28;20116;-30
2022/01/21 03:13:22;;;;;;;8.82;1.65;;;3.30;84.80;;;;;;5028079;28;20026;-33
2022/01/21 03:15:51;;;;;;;7.95;1.40;;;3.30;84.90;;;;;;5012959;28;20133;-31
2022/01/21 03:18:17;;;;;;;6.45;1.33;;;3.30;84.90;;;;;;5012905;28;20030;-32
2022/01/21 03:20:44;;;;;;;5.78;1.17;;;3.30;84.90;;;;;;5012990;28;20026;-31
2022/01/21 03:23:15;;;;;;;4.75;1.58;;;3.30;84.90;;;;;;5012990;28;20517;-30
2022/01/21 03:25:42;;;;;;;5.93;1.20;;;3.30;85.00;;;;;;5012804;28;20076;-30
2022/01/21 03:28:08;;;;;;;9.13;2.22;;;3.30;85.00;;;;;;5013070;28;20080;-29
2022/01/21 03:30:35;;;;;;;6.07;1.45;;;3.30;85.00;;;;;;5012869;28;20030;-30
2022/01/21 03:33:00;;;;;;;7.10;1.55;;;3.30;85.00;;;;;;5012941;28;20424;-30
2022/01/21 03:35:26;;;;;;;4.22;1.33;;;3.30;84.90;;;;;;5011413;28;20113;-30
2022/01/21 03:37:51;;;;;;;4.82;1.17;;;3.30;84.90;;;;;;5012726;28;20026;-32
2022/01/21 03:40:17;;;;;;;5.30;1.40;;;3.30;84.90;;;;;;5014798;28;20520;-32
2022/01/21 03:42:43;;;;;;;7.25;1.50;;;3.40;84.90;;;;;;5016426;28;20033;-30
2022/01/21 03:45:09;;;;;;;3.90;1.52;;;3.40;84.90;;;;;;5016346;28;20033;-29
2022/01/21 03:47:35;;;;;;;4.43;1.33;;;3.40;84.80;;;;;;5016419;28;20026;-29
2022/01/21 03:50:19;;;;;;;3.25;1.38;;;3.40;84.80;;;;;;5016253;28;20041;-32
2022/01/21 03:52:44;;;;;;;8.82;1.40;;;3.30;84.80;;;;;;5016514;28;20403;-31
2022/01/21 03:55:10;;;;;;;8.05;1.42;;;3.30;84.90;;;;;;5016261;28;20025;-29
2022/01/21 03:57:36;;;;;;;5.60;1.40;;;3.30;84.90;;;;;;5016133;28;20034;-29
2022/01/21 04:00:04;;;;;;;8.15;1.55;;;3.30;84.90;;;;;;5016031;28;20041;-29
2022/01/21 04:02:30;;;;;;;10.68;1.63;;;3.30;84.90;;;;;;5016070;28;20037;-30
2022/01/21 04:04:56;;;;;;;8.38;1.77;;;3.20;84.90;;;;;;5016045;28;20464;-30
2022/01/21 04:07:21;;;;;;;5.68;1.25;;;3.20;84.90;;;;;;5015830;28;20026;-30
2022/01/21 04:09:47;;;;;;;7.78;1.50;;;3.20;85.00;;;;;;5015915;28;20517;-29
2022/01/21 04:12:13;;;;;;;8.88;1.45;;;3.20;85.00;;;;;;5016108;28;20490;-29
2022/01/21 04:14:38;;;;;;;7.05;1.40;;;3.20;85.10;;;;;;5015771;28;20367;-32
2022/01/21 04:17:04;;;;;;;5.68;1.60;;;3.10;85.00;;;;;;5015718;28;20030;-36
2022/01/21 04:19:30;;;;;;;9.73;1.60;;;3.10;85.00;;;;;;5015702;28;20061;-30
2022/01/21 04:21:55;;;;;;;6.03;1.40;;;3.10;85.00;;;;;;5015700;28;20105;-28
2022/01/21 04:24:21;;;;;;;5.70;1.40;;;3.10;85.10;;;;;;5015865;28;20029;-31
2022/01/21 04:26:47;;;;;;;6.63;1.55;;;3.10;85.10;;;;;;5015649;28;20109;-30
2022/01/21 04:29:12;;;;;;;9.57;1.67;;;3.00;85.00;;;;;;5015534;28;20025;-33
2022/01/21 04:31:38;;;;;;;9.95;1.65;;;3.00;85.10;;;;;;5015531;28;20045;-32
2022/01/21 04:34:04;;;;;;;7.15;1.40;;;3.00;85.10;;;;;;5015418;28;20478;-30
2022/01/21 04:36:29;;;;;;;5.20;1.45;;;3.00;85.10;;;;;;5015314;28;20208;-30
2022/01/21 04:38:58;;;;;;;10.35;1.77;;;3.00;85.10;;;;;;5015602;28;20080;-32
2022/01/21 04:41:53;;;;;;;5.78;1.50;;;3.00;85.20;;;;;;5015374;28;20030;-30
2022/01/21 04:49:37;;;;;;;9.00;1.80;;;3.00;85.20;;;;;;5015432;28;20102;-29
2022/01/21 04:52:03;;;;;;;3.67;1.17;;;3.00;85.20;;;;;;5014572;28;20033;-30
2022/01/21 04:54:34;;;;;;;8.82;1.77;;;3.00;85.30;;;;;;5015337;28;20022;-29
2022/01/21 04:57:01;;;;;;;7.25;1.20;;;3.00;85.30;;;;;;5014929;28;20029;-28
2022/01/21 04:59:27;;;;;;;8.05;1.42;;;3.00;85.30;;;;;;5014960;28;20438;-31
2022/01/21 05:01:53;;;;;;;7.07;1.45;;;3.00;85.60;;;;;;5014939;28;20076;-28
2022/01/21 05:04:19;;;;;;;6.72;1.40;;;3.00;85.40;;;;;;5014831;28;20029;-28
2022/01/21 05:06:47;;;;;;;10.63;1.67;;;3.00;85.30;;;;;;5014788;28;20026;-29
2022/01/21 05:09:15;;;;;;;9.15;1.58;;;3.00;85.40;;;;;;5014801;28;20030;-29
2022/01/21 05:11:41;;;;;;;7.20;1.75;;;3.00;85.40;;;;;;5014736;28;20040;-30
2022/01/21 05:14:18;;;;;;;3.85;1.30;;;3.00;85.40;;;;;;5014687;28;20439;-30
2022/01/21 05:16:49;;;;;;;9.98;1.67;;;3.00;85.40;;;;;;5014736;28;20100;-32
2022/01/21 05:19:17;;;;;;;9.20;1.65;;;3.00;85.40;;;;;;5014776;28;20109;-29
2022/01/21 05:21:44;;;;;;;5.20;1.48;;;3.00;85.50;;;;;;5014887;28;20032;-30
2022/01/21 05:24:10;;;;;;;6.60;1.27;;;2.90;85.50;;;;;;5014493;28;20533;-29
2022/01/21 05:26:38;;;;;;;7.18;1.25;;;3.00;85.50;;;;;;5014752;28;20105;-29
2022/01/21 05:29:05;;;;;;;8.90;2.00;;;2.90;85.50;;;;;;5014668;28;20034;-32
2022/01/21 05:31:30;;;;;;;6.47;1.25;;;2.90;85.60;;;;;;5014318;28;20426;-29
2022/01/21 05:33:56;;;;;;;6.07;1.75;;;2.90;85.70;;;;;;5014606;28;20088;-29
2022/01/21 05:36:22;;;;;;;5.85;1.33;;;2.90;85.70;;;;;;5014178;28;20136;-32
2022/01/21 05:38:47;;;;;;;5.93;1.15;;;2.90;85.70;;;;;;5014189;28;20034;-30
2022/01/21 05:41:14;;;;;;;5.25;1.33;;;2.90;85.70;;;;;;5014564;28;20030;-32
2022/01/21 05:43:45;;;;;;;6.63;1.52;;;3.00;85.70;;;;;;5014083;28;20133;-28
2022/01/21 05:48:56;;;;;;;7.15;1.50;;;2.90;85.70;;;;;;5014160;28;20532;-30
2022/01/21 05:51:22;;;;;;;6.38;1.40;;;2.90;85.70;;;;;;5014002;28;20057;-29
2022/01/21 05:53:47;;;;;;;7.20;1.27;;;2.90;85.80;;;;;;5013916;28;20029;-30
2022/01/21 05:56:13;;;;;;;5.47;1.25;;;2.90;85.80;;;;;;5014133;28;20040;-31
2022/01/21 05:58:39;;;;;;;7.75;1.33;;;2.90;85.80;;;;;;5014035;28;20057;-30
2022/01/21 06:01:06;;;;;;;5.50;1.30;;;3.00;85.90;;;;;;5028995;28;20490;-30
2022/01/21 06:03:32;;;;;;;10.75;1.42;;;3.00;86.50;;;;;;5012977;28;20125;-30
2022/01/21 06:05:58;;;;;;;7.50;1.17;;;3.00;85.90;;;;;;5013653;28;20099;-30
2022/01/21 06:08:23;;;;;;;5.82;1.30;;;3.00;85.90;;;;;;5013986;28;20018;-30
2022/01/21 06:10:49;;;;;;;6.07;1.13;;;3.00;85.90;;;;;;5013950;28;20113;-30
2022/01/21 06:13:17;;;;;;;3.60;0.98;;;3.00;85.90;;;;;;5013635;28;20426;-31
2022/01/21 06:15:47;;;;;;;4.07;1.00;;;3.00;85.80;;;;;;5013842;28;20425;-31
2022/01/21 06:18:13;;;;;;;7.83;1.47;;;3.00;85.80;;;;;;5013483;28;20109;-29
2022/01/21 06:20:38;;;;;;;6.22;1.20;;;2.90;85.80;;;;;;5013541;28;20148;-30
2022/01/21 06:23:04;;;;;;;8.07;1.52;;;3.00;85.90;;;;;;5013451;28;20034;-28
2022/01/21 06:25:30;;;;;;;4.78;1.20;;;3.00;85.90;;;;;;5013495;28;20029;-29
2022/01/21 06:27:56;;;;;;;4.65;1.23;;;3.00;85.90;;;;;;5013501;28;20026;-30
2022/01/21 06:30:22;;;;;;;6.00;1.42;;;3.00;85.90;;;;;;5013423;28;20026;-29
2022/01/21 06:32:47;;;;;;;6.47;2.10;;;3.10;86.00;;;;;;5028602;28;20087;-29
2022/01/21 06:35:13;;;;;;;4.85;1.67;;;3.10;85.90;;;;;;5013186;28;20050;-29
2022/01/21 06:37:39;;;;;;;4.57;1.08;;;3.20;85.90;;;;;;5013345;28;20037;-30
2022/01/21 06:40:07;;;;;;;6.40;1.35;;;3.20;85.90;;;;;;5013171;28;20470;-30
2022/01/21 06:42:33;;;;;;;4.03;1.42;;;3.20;85.70;;;;;;5013566;28;20021;-32
2022/01/21 06:45:00;;;;;;;7.40;1.70;;;3.30;85.80;;;;;;5013456;28;20169;-30
2022/01/21 06:47:27;;;;;;;5.28;1.25;;;3.40;85.70;;;;;;5013319;28;20026;-28
2022/01/21 06:49:54;;;;;;;6.80;1.88;;;3.40;85.60;;;;;;5013267;28;20498;-30
2022/01/21 06:52:21;;;;;;;5.53;1.45;;;3.40;85.60;;;;;;5013149;28;20034;-31
2022/01/21 06:54:47;;;;;;;8.57;1.58;;;3.50;85.60;;;;;;5013270;28;20022;-30
2022/01/21 06:57:14;;;;;;;10.15;2.10;;;3.50;85.60;;;;;;5013253;28;20544;-28
2022/01/21 06:59:39;;;;;;;9.95;1.60;;;3.60;85.60;;;;;;5012995;28;20030;-33
2022/01/21 07:02:05;;;;;;;7.90;1.50;;;3.60;85.60;;;;;;5013084;28;20602;-31
2022/01/21 07:04:30;;;;;;;6.22;1.45;;;3.60;85.50;;;;;;5013000;28;20459;-29
2022/01/21 07:06:57;;;;;;;4.53;1.58;;;3.60;85.40;;;;;;5013042;28;20068;-29
2022/01/21 07:09:25;;;;;;;6.88;1.63;;;3.60;85.40;;;;;;5012984;28;20030;-30
2022/01/21 07:11:50;;;;;;;4.22;1.25;;;3.60;85.50;;;;;;5012919;28;20038;-29
2022/01/21 07:14:16;;;;;;;3.83;1.23;;;3.70;85.50;;;;;;5014921;28;20033;-35
2022/01/21 07:16:41;;;;;;;7.25;1.35;;;3.70;85.60;;;;;;5016955;28;20478;-32
2022/01/21 07:19:07;;;;;;;5.70;1.30;;;3.70;85.60;;;;;;5016800;28;20470;-30
2022/01/21 07:21:32;;;;;;;4.22;1.15;;;3.70;85.50;;;;;;5017029;28;20026;-29
2022/01/21 07:23:58;;;;;;;4.65;1.30;;;3.70;85.50;;;;;;5016739;28;20425;-30
2022/01/21 07:26:23;;;;;;;3.28;1.08;;;3.70;85.40;;;;;;5017058;28;20049;-30
2022/01/21 07:28:49;;;;;;;6.47;1.42;;;3.70;85.40;;;;;;5016487;28;20029;-31
2022/01/21 07:31:15;;;;;;;6.88;1.27;;;3.70;85.50;;;;;;5016577;28;20041;-32
2022/01/21 07:33:40;;;;;;;7.40;1.60;;;3.70;85.50;;;;;;5016483;28;20108;-29
2022/01/21 07:36:06;;;;;;;3.63;1.23;;;3.60;85.70;;;;;;5016414;28;20465;-30
2022/01/21 07:38:32;;;;;;;4.32;1.30;;;3.60;85.80;;;;;;5016604;28;20113;-28
2022/01/21 07:40:58;;;;;;;3.92;1.40;;;3.60;85.90;;;;;;5031654;28;20056;-32
2022/01/21 07:43:23;;;;;;;8.30;1.75;;;3.60;86.00;;;;;;5016271;28;20033;-29
2022/01/21 07:45:49;;;;;;;4.90;1.50;;;3.60;86.00;;;;;;5016524;28;20410;-30
2022/01/21 07:48:14;;;;;;;5.43;1.40;;;3.60;85.90;;;;;;5031485;28;20064;-30
2022/01/21 07:50:40;;;;;;;6.15;1.42;;;3.70;85.90;;;;;;5016316;28;20034;-30
2022/01/21 07:53:06;;;;;;;4.43;1.38;;;3.70;85.90;;;;;;5016243;28;20026;-31
2022/01/21 07:55:32;;;;;;;6.10;1.45;;;3.70;85.90;;;;;;5016297;28;20026;-29
2022/01/21 07:58:00;;;;;;;3.22;1.30;;;3.70;85.90;;;;;;5016114;28;20105;-30
2022/01/21 08:00:26;;;;;;;4.72;1.20;;;3.70;86.00;;;;;;5016303;28;20433;-29
2022/01/21 08:02:52;;;;;;;7.18;1.30;;;3.70;86.00;;;;;;5016089;28;20037;-29
2022/01/21 08:05:17;;;;;;;6.13;1.77;;;3.80;86.00;;;;;;5031083;28;20026;-29
2022/01/21 08:07:43;;;;;;;6.18;1.70;;;3.80;86.00;;;;;;5016166;28;20498;-30
2022/01/21 08:10:09;;;;;;;7.18;1.50;;;3.70;86.00;;;;;;5015890;28;20084;-29
2022/01/21 08:12:36;;;;;;;3.83;1.05;;;3.70;86.00;;;;;;5015834;28;20033;-29
2022/01/21 08:15:02;;;;;;;4.60;1.27;;;3.70;86.10;;;;;;5015847;28;20021;-33
2022/01/21 08:17:29;;;;;;;3.00;1.25;;;3.70;86.20;;;;;;5030965;28;20030;-31
2022/01/21 08:19:59;;;;;;;6.15;1.58;;;3.80;86.30;;;;;;5015641;28;20362;-34
2022/01/21 08:22:25;;;;;;;3.08;1.10;;;3.70;86.20;;;;;;5015675;28;20029;-31
2022/01/21 08:24:51;;;;;;;2.92;1.10;;;3.80;86.30;;;;;;5015178;28;20305;-31
2022/01/21 08:27:16;;;;;;;7.57;1.40;;;3.80;86.30;;;;;;5014039;28;20469;-30
2022/01/21 08:29:42;;;;;;;6.20;1.70;;;3.90;86.30;;;;;;5015505;28;20038;-30
2022/01/21 08:32:08;;;;;;;7.78;1.13;;;3.90;86.20;;;;;;5030741;28;20556;-29
2022/01/21 08:34:37;;;;;;;3.65;1.33;;;4.00;86.20;;;;;;5015430;28;20185;-29
2022/01/21 08:37:03;;;;;;;5.10;1.77;;;4.00;86.20;;;;;;5015482;28;20104;-29
2022/01/21 08:39:29;;;;;;;6.15;1.98;;;4.00;86.10;;;;;;5015595;28;20026;-31
2022/01/21 08:41:55;;;;;;;3.38;1.15;;;4.00;86.10;;;;;;5015162;28;20024;-32
2022/01/21 08:44:21;;;;;;;5.47;1.25;;;4.00;86.20;;;;;;5015301;28;20116;-29
2022/01/21 08:46:49;;;;;;;2.90;1.27;;;4.10;86.20;;;;;;5015064;28;20113;-29
2022/01/21 08:49:18;;;;;;;3.90;1.38;;;4.10;86.20;;;;;;5015074;28;20029;-31
2022/01/21 08:51:51;;;;;;;7.97;1.60;;;4.10;86.10;;;;;;5015341;28;20029;-34
2022/01/21 08:54:17;;;;;;;4.97;1.15;;;4.20;86.10;;;;;;5015224;28;20413;-29
2022/01/21 08:56:43;;;;;;;5.65;1.40;;;4.20;86.00;;;;;;5014938;28;20026;-32
2022/01/21 08:59:09;;;;;;;10.75;1.52;;;4.20;86.00;;;;;;5014808;28;20338;-31
2022/01/21 09:01:35;;;;;;;7.78;1.55;;;4.30;86.00;;;;;;5014877;28;20108;-29
2022/01/21 09:04:00;;;;;;;5.03;1.08;;;4.30;86.60;;;;;;5014905;28;20030;-30
2022/01/21 09:06:28;;;;;;;6.28;1.38;;;4.30;86.00;;;;;;5014712;28;20064;-30
2022/01/21 09:08:58;;;;;;;7.68;1.40;;;4.30;85.90;;;;;;5014894;28;20030;-29
2022/01/21 09:11:24;;;;;;;5.80;1.63;;;4.40;85.90;;;;;;5014720;28;20033;-29
2022/01/21 09:13:50;;;;;;;4.60;1.30;;;4.50;85.90;;;;;;5014620;28;20029;-33
2022/01/21 09:16:17;;;;;;;8.85;1.52;;;4.50;85.90;;;;;;5014476;28;20486;-32
2022/01/21 09:21:19;;;;;;;4.32;1.38;;;4.80;85.70;;;;;;5013650;28;20034;-31
2022/01/21 09:23:48;;;;;;;6.82;1.80;;;5.00;85.40;;;;;;5013499;28;20041;-30
2022/01/21 09:26:16;;;;;;;5.03;1.20;;;5.10;85.10;;;;;;5014690;28;20466;-30
2022/01/21 09:28:42;;;;;;;5.65;1.45;;;5.10;84.80;;;;;;5014339;28;20029;-32
2022/01/21 09:31:08;;;;;;;5.65;1.30;;;5.20;84.80;;;;;;5014223;28;20030;-31
2022/01/21 09:33:33;;;;;;;5.55;1.40;;;5.20;84.80;;;;;;5029362;28;20032;-29
2022/01/21 09:35:59;;;;;;;3.83;1.30;;;5.20;84.80;;;;;;5014011;28;20084;-30
2022/01/21 09:38:25;;;;;;;3.90;1.33;;;5.30;84.70;;;;;;5014049;28;20030;-36
2022/01/21 09:40:51;;;;;;;6.60;1.58;;;5.40;84.50;;;;;;5014292;28;20426;-30
2022/01/21 09:43:19;;;;;;;4.30;1.20;;;5.40;84.20;;;;;;5014154;28;20105;-31
2022/01/21 09:45:52;;;;;;;4.80;1.65;;;5.40;84.20;;;;;;5014043;28;20401;-32
2022/01/21 09:48:23;;;;;;;6.95;1.42;;;5.40;84.30;;;;;;5014167;28;20076;-29
2022/01/21 09:50:54;;;;;;;5.85;1.55;;;5.40;84.40;;;;;;5013898;28;20034;-30
2022/01/21 09:53:32;;;;;;;5.70;1.60;;;5.40;84.40;;;;;;5014018;28;20018;-29
2022/01/21 09:56:00;;;;;;;8.35;1.80;;;5.40;84.40;;;;;;5013800;28;20504;-28
2022/01/21 09:58:30;;;;;;;7.65;1.77;;;5.40;84.30;;;;;;5013689;28;20030;-29
2022/01/21 10:00:58;;;;;;;10.60;1.85;;;5.50;84.30;;;;;;5013787;28;20029;-32
2022/01/21 10:03:24;;;;;;;3.90;1.40;;;5.50;84.20;;;;;;5028690;28;20117;-30
2022/01/21 10:05:51;;;;;;;8.50;1.70;;;5.50;84.10;;;;;;5013609;28;20014;-29
2022/01/21 10:08:19;;;;;;;6.50;1.65;;;5.50;84.10;;;;;;5013521;28;20034;-28
2022/01/21 10:10:45;;;;;;;4.63;1.58;;;5.60;84.20;;;;;;5013614;28;20367;-30
2022/01/21 10:13:15;;;;;;;11.38;2.78;;;5.70;84.10;;;;;;5013538;28;20030;-32
2022/01/21 10:15:40;;;;;;;8.07;1.88;;;5.80;83.80;;;;;;5013491;28;20029;-29
2022/01/21 10:18:13;;;;;;;8.30;1.80;;;5.80;83.70;;;;;;5013358;28;20482;-32
2022/01/21 10:21:06;;;;;;;13.20;2.05;;;5.90;83.70;;;;;;5013636;28;20144;-28
2022/01/21 10:23:36;;;;;;;10.38;2.30;;;5.90;83.40;;;;;;5013525;28;20025;-29
2022/01/21 10:26:10;;;;;;;8.30;2.08;;;5.90;83.50;;;;;;5013258;28;20168;-30
2022/01/21 10:28:39;;;;;;;11.32;2.33;;;6.00;83.40;;;;;;5013350;28;20032;-30
2022/01/21 10:31:11;;;;;;;11.02;2.28;;;6.10;83.30;;;;;;5013067;28;20030;-30
2022/01/21 10:33:45;;;;;;;5.93;1.73;;;6.10;83.10;;;;;;5013022;28;20062;-31
2022/01/21 10:36:21;;;;;;;9.60;1.98;;;6.20;83.00;;;;;;5012904;28;20125;-29
2022/01/21 10:38:49;;;;;;;7.32;1.98;;;6.20;83.00;;;;;;5013269;28;20038;-29
2022/01/21 10:41:17;;;;;;;10.10;2.42;;;6.20;83.10;;;;;;5013345;28;20026;-30
2022/01/21 10:43:45;;;;;;;6.60;2.50;;;6.20;83.20;;;;;;5013082;28;20029;-34
2022/01/21 10:46:16;;;;;;;10.70;1.80;;;6.20;83.00;;;;;;5013248;28;20036;-34
2022/01/21 10:49:02;;;;;;;7.05;1.95;;;6.30;83.10;;;;;;5012849;28;20052;-32
2022/01/21 10:51:31;;;;;;;8.43;1.80;;;6.40;83.70;;;;;;5012975;28;20034;-31
2022/01/21 10:53:58;;;;;;;10.23;1.80;;;6.50;83.00;;;;;;5012831;28;20033;-31
2022/01/21 10:56:26;;;;;;;8.75;2.13;;;6.60;82.90;;;;;;5012904;28;20084;-31
2022/01/21 10:58:55;;;;;;;9.55;2.50;;;6.60;82.80;;;;;;5013093;28;20390;-30
2022/01/21 11:01:25;;;;;;;7.47;1.80;;;6.70;82.80;;;;;;5013116;28;20022;-30
2022/01/21 11:04:08;;;;;;;8.95;2.00;;;6.80;82.80;;;;;;5012823;28;20033;-30
2022/01/21 11:06:56;;;;;;;6.97;1.80;;;6.90;82.80;;;;;;5013148;28;20100;-30
2022/01/21 11:09:28;;;;;;;14.05;2.30;;;6.90;82.70;;;;;;5013023;28;20076;-29
2022/01/21 11:12:09;;;;;;;6.38;1.60;;;7.00;82.80;;;;;;5012786;28;20088;-29
2022/01/21 11:14:35;;;;;;;7.10;1.77;;;7.00;82.70;;;;;;5013171;28;20474;-29
2022/01/21 11:17:15;;;;;;;8.40;1.80;;;7.00;82.70;;;;;;5012739;28;20034;-32
2022/01/21 11:19:59;;;;;;;10.82;2.03;;;6.90;82.80;;;;;;5012683;28;20030;-34
2022/01/21 11:22:25;;;;;;;8.40;2.10;;;6.90;82.90;;;;;;5012851;28;20030;-30
2022/01/21 11:24:50;;;;;;;10.82;2.08;;;6.90;82.90;;;;;;5012772;28;20096;-34
2022/01/21 11:27:17;;;;;;;11.10;2.70;;;6.90;83.00;;;;;;5012810;28;20030;-31
2022/01/21 11:29:45;;;;;;;6.47;2.10;;;6.90;83.00;;;;;;5013048;28;20409;-32
2022/01/21 11:32:12;;;;;;;7.03;1.98;;;6.90;83.10;;;;;;5012811;28;20054;-30
2022/01/21 11:34:38;;;;;;;9.20;1.83;;;7.00;83.30;;;;;;5012508;28;20052;-32
2022/01/21 11:37:06;;;;;;;9.40;2.10;;;7.00;83.20;;;;;;5012607;28;20029;-32
2022/01/21 11:39:33;;;;;;;10.38;2.00;;;7.10;83.20;;;;;;5012437;28;20026;-31
2022/01/21 11:42:01;;;;;;;4.93;1.70;;;7.10;83.10;;;;;;5011285;28;20022;-29
2022/01/21 11:44:29;;;;;;;4.45;1.50;;;7.10;83.10;;;;;;5012637;28;20030;-32
2022/01/21 11:47:02;;;;;;;8.20;1.60;;;7.20;83.20;;;;;;5012592;28;20029;-31
2022/01/21 11:49:30;;;;;;;9.98;2.20;;;7.20;83.20;;;;;;5027623;28;20033;-31
2022/01/21 11:52:09;;;;;;;5.55;1.60;;;7.20;83.20;;;;;;5012715;28;20029;-35
2022/01/21 11:54:39;;;;;;;7.57;1.77;;;7.20;83.20;;;;;;5012599;28;20107;-29
2022/01/21 11:57:06;;;;;;;8.57;2.05;;;7.20;83.30;;;;;;5011222;28;20026;-33
2022/01/21 12:01:59;;;;;;;13.32;2.00;;;7.20;83.50;;;;;;5015517;28;20030;-29
2022/01/21 12:04:30;;;;;;;13.77;1.92;;;7.10;83.50;;;;;;5016144;28;20520;-30
2022/01/21 12:07:00;;;;;;;9.55;1.92;;;7.10;83.60;;;;;;5015974;28;20026;-32
2022/01/21 12:09:53;;;;;;;7.80;1.80;;;7.20;83.70;;;;;;5016004;28;20028;-29
2022/01/21 12:12:19;;;;;;;12.93;3.13;;;7.20;83.80;;;;;;5015792;28;20061;-30
2022/01/21 12:14:51;;;;;;;10.85;1.90;;;7.20;83.90;;;;;;5015808;28;20432;-30
2022/01/21 12:17:36;;;;;;;9.88;2.25;;;7.10;83.90;;;;;;5015729;28;20022;-31
2022/01/21 12:20:06;;;;;;;8.43;1.77;;;7.20;84.00;;;;;;5015721;28;20068;-29
2022/01/21 12:22:32;;;;;;;7.38;2.00;;;7.20;84.00;;;;;;5015970;28;20520;-31
2022/01/21 12:25:08;;;;;;;8.13;2.05;;;7.30;84.00;;;;;;5015565;28;20026;-30
2022/01/21 12:27:36;;;;;;;5.78;1.60;;;7.40;84.00;;;;;;5030746;28;20013;-30
2022/01/21 12:30:20;;;;;;;8.52;1.90;;;7.40;83.90;;;;;;5015334;28;20109;-31
2022/01/21 12:32:55;;;;;;;2.70;1.58;;;7.50;83.90;;;;;;5015572;28;20032;-30
2022/01/21 12:35:22;;;;;;;5.43;2.08;;;7.50;83.90;;;;;;5015125;28;20054;-30
2022/01/21 12:41:15;;;;;;;9.68;2.17;;;7.60;83.90;;;;;;4986071;28;20049;-30
2022/01/21 12:43:56;;;;;;;12.27;2.22;;;7.60;83.80;;;;;;5015157;28;20037;-33
2022/01/21 12:46:34;;;;;;;7.38;1.92;;;7.70;83.80;;;;;;5015191;28;20072;-29
2022/01/21 12:49:01;;;;;;;6.65;1.92;;;7.70;83.80;;;;;;5015024;28;20423;-29
2022/01/21 12:56:55;;;;;;;8.45;2.00;;;7.70;83.80;;;;;;5014826;28;20096;-30
2022/01/21 12:59:23;;;;;;;10.52;2.42;;;7.70;83.80;;;;;;5014659;28;20077;-32
2022/01/21 13:01:50;;;;;;;8.68;2.20;;;7.70;83.80;;;;;;5014757;28;20488;-30
2022/01/21 13:04:40;;;;;;;9.05;1.77;;;7.80;83.80;;;;;;5014745;28;20026;-30
2022/01/21 13:07:12;;;;;;;9.95;1.80;;;7.70;83.70;;;;;;5014539;28;20033;-31
2022/01/21 13:10:19;;;;;;;10.00;1.80;;;7.80;83.80;;;;;;5014647;28;20437;-32
2022/01/21 13:15:50;;;;;;;7.45;2.03;;;7.80;83.70;;;;;;5014602;28;20030;-32
2022/01/21 13:18:19;;;;;;;8.88;2.13;;;7.80;83.70;;;;;;5014683;28;20536;-32
2022/01/21 13:20:48;;;;;;;10.55;1.95;;;7.80;83.70;;;;;;5014446;28;20470;-32
2022/01/21 13:23:31;;;;;;;10.38;2.00;;;7.80;83.80;;;;;;5014354;28;20022;-34
2022/01/21 13:26:13;;;;;;;10.48;1.90;;;7.80;83.70;;;;;;5014270;28;20044;-31
2022/01/21 13:29:08;;;;;;;11.05;2.25;;;7.70;83.80;;;;;;5014280;28;20018;-31
2022/01/21 13:31:58;;;;;;;7.10;2.83;;;7.70;83.80;;;;;;5014418;28;20482;-31
2022/01/21 13:34:32;;;;;;;9.43;1.83;;;7.70;83.80;;;;;;5014128;28;20026;-30
2022/01/21 13:37:00;;;;;;;7.43;1.70;;;7.70;83.90;;;;;;5014465;28;20419;-30
2022/01/21 13:39:29;;;;;;;12.40;2.28;;;7.80;83.90;;;;;;5014049;28;20128;-30
2022/01/21 13:42:10;;;;;;;13.18;2.10;;;7.80;83.80;;;;;;5014032;28;20022;-30
2022/01/21 13:44:42;;;;;;;7.55;1.70;;;7.80;83.80;;;;;;5014292;28;20402;-30
2022/01/21 13:47:23;;;;;;;9.35;2.08;;;7.80;83.70;;;;;;5014014;28;20561;-30
2022/01/21 13:49:49;;;;;;;8.02;1.95;;;7.90;83.80;;;;;;5013872;28;20022;-30
2022/01/21 13:52:15;;;;;;;6.75;1.80;;;7.90;83.80;;;;;;5013802;28;20109;-41
2022/01/21 13:54:45;;;;;;;8.93;1.65;;;7.90;83.60;;;;;;5013760;28;20105;-30
2022/01/21 13:57:11;;;;;;;7.05;1.83;;;8.00;83.60;;;;;;5013832;28;20029;-30
2022/01/21 13:59:45;;;;;;;6.78;1.90;;;8.00;83.60;;;;;;5013668;28;20036;-31
2022/01/21 14:02:17;;;;;;;6.28;1.70;;;8.00;83.50;;;;;;5013706;28;20089;-30
2022/01/21 14:04:58;;;;;;;11.88;2.05;;;8.00;83.40;;;;;;5013707;28;20018;-31